sensor_id;sensor_type;location;lat;lon;timestamp;P1;durP1;ratioP1;P2;durP2;ratioP2
71253;SDS011;59019;47.638;18.966;2022-07-29T00:02:02;5.13;;;2.90;;
71253;SDS011;59019;47.638;18.966;2022-07-29T00:04:28;5.03;;;2.97;;
71253;SDS011;59019;47.638;18.966;2022-07-29T00:06:53;5.00;;;3.00;;
71253;SDS011;59019;47.638;18.966;2022-07-29T00:09:19;5.27;;;3.00;;
71253;SDS011;59019;47.638;18.966;2022-07-29T00:11:44;5.20;;;3.08;;
71253;SDS011;59019;47.638;18.966;2022-07-29T00:14:10;5.20;;;3.10;;
71253;SDS011;59019;47.638;18.966;2022-07-29T00:16:36;6.05;;;3.10;;
71253;SDS011;59019;47.638;18.966;2022-07-29T00:19:02;6.53;;;2.97;;
71253;SDS011;59019;47.638;18.966;2022-07-29T00:21:28;5.72;;;3.17;;
71253;SDS011;59019;47.638;18.966;2022-07-29T00:23:54;4.47;;;2.90;;
71253;SDS011;59019;47.638;18.966;2022-07-29T00:26:20;5.23;;;3.03;;
71253;SDS011;59019;47.638;18.966;2022-07-29T00:28:45;7.07;;;2.85;;
71253;SDS011;59019;47.638;18.966;2022-07-29T00:31:11;4.97;;;2.70;;
71253;SDS011;59019;47.638;18.966;2022-07-29T00:33:37;5.05;;;2.70;;
71253;SDS011;59019;47.638;18.966;2022-07-29T00:36:02;7.97;;;3.23;;
71253;SDS011;59019;47.638;18.966;2022-07-29T00:38:28;7.18;;;3.10;;
71253;SDS011;59019;47.638;18.966;2022-07-29T00:40:54;4.70;;;2.93;;
71253;SDS011;59019;47.638;18.966;2022-07-29T00:43:19;4.82;;;2.80;;
71253;SDS011;59019;47.638;18.966;2022-07-29T00:45:45;6.53;;;3.07;;
71253;SDS011;59019;47.638;18.966;2022-07-29T00:48:10;6.00;;;2.77;;
71253;SDS011;59019;47.638;18.966;2022-07-29T00:50:36;4.68;;;2.90;;
71253;SDS011;59019;47.638;18.966;2022-07-29T00:53:02;5.22;;;3.05;;
71253;SDS011;59019;47.638;18.966;2022-07-29T00:55:30;5.30;;;3.15;;
71253;SDS011;59019;47.638;18.966;2022-07-29T00:57:56;5.70;;;2.92;;
71253;SDS011;59019;47.638;18.966;2022-07-29T01:00:24;5.80;;;2.92;;
71253;SDS011;59019;47.638;18.966;2022-07-29T01:02:51;5.60;;;3.35;;
71253;SDS011;59019;47.638;18.966;2022-07-29T01:05:18;5.70;;;3.20;;
71253;SDS011;59019;47.638;18.966;2022-07-29T01:07:45;5.20;;;3.15;;
71253;SDS011;59019;47.638;18.966;2022-07-29T01:10:13;5.38;;;3.05;;
71253;SDS011;59019;47.638;18.966;2022-07-29T01:12:41;5.78;;;3.00;;
71253;SDS011;59019;47.638;18.966;2022-07-29T01:15:09;7.45;;;3.15;;
71253;SDS011;59019;47.638;18.966;2022-07-29T01:17:38;5.38;;;3.22;;
71253;SDS011;59019;47.638;18.966;2022-07-29T01:23:36;5.55;;;3.30;;
71253;SDS011;59019;47.638;18.966;2022-07-29T01:31:11;5.88;;;3.35;;
71253;SDS011;59019;47.638;18.966;2022-07-29T01:33:41;6.32;;;3.28;;
71253;SDS011;59019;47.638;18.966;2022-07-29T01:36:14;6.38;;;3.60;;
71253;SDS011;59019;47.638;18.966;2022-07-29T01:39:00;5.03;;;3.13;;
71253;SDS011;59019;47.638;18.966;2022-07-29T01:41:32;5.68;;;3.03;;
71253;SDS011;59019;47.638;18.966;2022-07-29T01:44:02;5.18;;;3.17;;
71253;SDS011;59019;47.638;18.966;2022-07-29T01:46:41;6.40;;;3.60;;
71253;SDS011;59019;47.638;18.966;2022-07-29T01:49:13;8.23;;;3.35;;
71253;SDS011;59019;47.638;18.966;2022-07-29T01:54:30;5.95;;;3.50;;
71253;SDS011;59019;47.638;18.966;2022-07-29T01:57:00;7.65;;;3.50;;
71253;SDS011;59019;47.638;18.966;2022-07-29T01:59:28;6.40;;;3.15;;
71253;SDS011;59019;47.638;18.966;2022-07-29T02:01:56;5.00;;;3.13;;
71253;SDS011;59019;47.638;18.966;2022-07-29T02:04:23;5.95;;;3.63;;
71253;SDS011;59019;47.638;18.966;2022-07-29T02:06:51;5.25;;;3.42;;
71253;SDS011;59019;47.638;18.966;2022-07-29T02:09:19;6.75;;;3.40;;
71253;SDS011;59019;47.638;18.966;2022-07-29T02:11:51;8.35;;;3.42;;
71253;SDS011;59019;47.638;18.966;2022-07-29T02:14:19;8.93;;;3.75;;
71253;SDS011;59019;47.638;18.966;2022-07-29T02:16:47;6.82;;;3.38;;
71253;SDS011;59019;47.638;18.966;2022-07-29T02:19:16;6.45;;;3.38;;
71253;SDS011;59019;47.638;18.966;2022-07-29T02:21:43;4.97;;;3.33;;
71253;SDS011;59019;47.638;18.966;2022-07-29T02:24:11;6.20;;;3.80;;
71253;SDS011;59019;47.638;18.966;2022-07-29T02:26:37;6.90;;;3.45;;
71253;SDS011;59019;47.638;18.966;2022-07-29T02:29:06;7.00;;;3.40;;
71253;SDS011;59019;47.638;18.966;2022-07-29T02:31:34;5.30;;;3.50;;
71253;SDS011;59019;47.638;18.966;2022-07-29T02:34:04;5.40;;;3.33;;
71253;SDS011;59019;47.638;18.966;2022-07-29T02:36:32;6.65;;;3.42;;
71253;SDS011;59019;47.638;18.966;2022-07-29T02:39:00;7.35;;;3.83;;
71253;SDS011;59019;47.638;18.966;2022-07-29T02:41:38;5.15;;;3.42;;
71253;SDS011;59019;47.638;18.966;2022-07-29T02:44:11;5.82;;;3.67;;
71253;SDS011;59019;47.638;18.966;2022-07-29T02:46:43;6.40;;;3.50;;
71253;SDS011;59019;47.638;18.966;2022-07-29T02:52:32;7.70;;;3.63;;
71253;SDS011;59019;47.638;18.966;2022-07-29T02:58:02;7.30;;;3.72;;
71253;SDS011;59019;47.638;18.966;2022-07-29T03:00:33;5.50;;;3.45;;
71253;SDS011;59019;47.638;18.966;2022-07-29T03:03:03;7.22;;;3.70;;
71253;SDS011;59019;47.638;18.966;2022-07-29T03:05:33;6.20;;;3.75;;
71253;SDS011;59019;47.638;18.966;2022-07-29T03:08:01;6.97;;;3.67;;
71253;SDS011;59019;47.638;18.966;2022-07-29T03:10:29;5.95;;;3.92;;
71253;SDS011;59019;47.638;18.966;2022-07-29T03:12:56;6.85;;;3.70;;
71253;SDS011;59019;47.638;18.966;2022-07-29T03:15:23;7.88;;;3.67;;
71253;SDS011;59019;47.638;18.966;2022-07-29T03:17:49;5.72;;;3.85;;
71253;SDS011;59019;47.638;18.966;2022-07-29T03:20:16;9.55;;;4.18;;
71253;SDS011;59019;47.638;18.966;2022-07-29T03:22:43;7.68;;;3.67;;
71253;SDS011;59019;47.638;18.966;2022-07-29T03:25:15;6.82;;;3.78;;
71253;SDS011;59019;47.638;18.966;2022-07-29T03:27:42;8.63;;;3.95;;
71253;SDS011;59019;47.638;18.966;2022-07-29T03:30:09;8.40;;;3.95;;
71253;SDS011;59019;47.638;18.966;2022-07-29T03:32:35;7.45;;;4.18;;
71253;SDS011;59019;47.638;18.966;2022-07-29T03:35:01;8.40;;;4.15;;
71253;SDS011;59019;47.638;18.966;2022-07-29T03:37:28;8.13;;;3.90;;
71253;SDS011;59019;47.638;18.966;2022-07-29T03:39:55;6.75;;;3.65;;
71253;SDS011;59019;47.638;18.966;2022-07-29T03:42:23;6.45;;;3.60;;
71253;SDS011;59019;47.638;18.966;2022-07-29T03:44:52;9.67;;;3.97;;
71253;SDS011;59019;47.638;18.966;2022-07-29T03:47:20;8.63;;;4.18;;
71253;SDS011;59019;47.638;18.966;2022-07-29T03:49:49;7.93;;;4.00;;
71253;SDS011;59019;47.638;18.966;2022-07-29T03:52:17;6.35;;;4.00;;
71253;SDS011;59019;47.638;18.966;2022-07-29T03:54:43;5.88;;;3.95;;
71253;SDS011;59019;47.638;18.966;2022-07-29T03:57:09;6.70;;;4.00;;
71253;SDS011;59019;47.638;18.966;2022-07-29T03:59:36;11.73;;;4.30;;
71253;SDS011;59019;47.638;18.966;2022-07-29T04:02:03;9.38;;;4.30;;
71253;SDS011;59019;47.638;18.966;2022-07-29T04:04:33;8.07;;;4.20;;
71253;SDS011;59019;47.638;18.966;2022-07-29T04:06:59;11.68;;;4.75;;
71253;SDS011;59019;47.638;18.966;2022-07-29T04:09:25;9.30;;;4.32;;
71253;SDS011;59019;47.638;18.966;2022-07-29T04:11:50;7.37;;;3.93;;
71253;SDS011;59019;47.638;18.966;2022-07-29T04:14:16;5.97;;;3.78;;
71253;SDS011;59019;47.638;18.966;2022-07-29T04:16:42;7.97;;;4.23;;
71253;SDS011;59019;47.638;18.966;2022-07-29T04:19:07;8.03;;;4.33;;
71253;SDS011;59019;47.638;18.966;2022-07-29T04:21:37;6.47;;;4.40;;
71253;SDS011;59019;47.638;18.966;2022-07-29T04:24:03;6.83;;;4.27;;
71253;SDS011;59019;47.638;18.966;2022-07-29T04:26:29;8.45;;;4.30;;
71253;SDS011;59019;47.638;18.966;2022-07-29T04:28:55;6.83;;;4.30;;
71253;SDS011;59019;47.638;18.966;2022-07-29T04:31:20;7.45;;;4.38;;
71253;SDS011;59019;47.638;18.966;2022-07-29T04:33:46;6.13;;;4.20;;
71253;SDS011;59019;47.638;18.966;2022-07-29T04:36:12;6.20;;;4.10;;
71253;SDS011;59019;47.638;18.966;2022-07-29T04:38:38;7.57;;;4.80;;
71253;SDS011;59019;47.638;18.966;2022-07-29T04:41:03;6.40;;;4.47;;
71253;SDS011;59019;47.638;18.966;2022-07-29T04:43:30;6.07;;;3.88;;
71253;SDS011;59019;47.638;18.966;2022-07-29T04:45:56;7.37;;;4.10;;
71253;SDS011;59019;47.638;18.966;2022-07-29T04:48:21;5.82;;;4.20;;
71253;SDS011;59019;47.638;18.966;2022-07-29T04:50:47;5.97;;;4.00;;
71253;SDS011;59019;47.638;18.966;2022-07-29T04:53:12;7.67;;;3.93;;
71253;SDS011;59019;47.638;18.966;2022-07-29T04:55:38;5.95;;;3.85;;
71253;SDS011;59019;47.638;18.966;2022-07-29T04:58:03;5.93;;;3.92;;
71253;SDS011;59019;47.638;18.966;2022-07-29T05:00:29;6.10;;;4.30;;
71253;SDS011;59019;47.638;18.966;2022-07-29T05:02:54;9.85;;;4.00;;
71253;SDS011;59019;47.638;18.966;2022-07-29T05:05:20;6.53;;;4.05;;
71253;SDS011;59019;47.638;18.966;2022-07-29T05:07:45;6.57;;;4.17;;
71253;SDS011;59019;47.638;18.966;2022-07-29T05:10:11;6.13;;;3.90;;
71253;SDS011;59019;47.638;18.966;2022-07-29T05:12:36;5.85;;;4.07;;
71253;SDS011;59019;47.638;18.966;2022-07-29T05:15:02;8.43;;;4.10;;
71253;SDS011;59019;47.638;18.966;2022-07-29T05:17:28;7.35;;;4.18;;
71253;SDS011;59019;47.638;18.966;2022-07-29T05:19:54;7.40;;;4.13;;
71253;SDS011;59019;47.638;18.966;2022-07-29T05:22:19;6.47;;;3.92;;
71253;SDS011;59019;47.638;18.966;2022-07-29T05:24:46;5.87;;;4.23;;
71253;SDS011;59019;47.638;18.966;2022-07-29T05:27:11;6.93;;;3.88;;
71253;SDS011;59019;47.638;18.966;2022-07-29T05:29:37;8.20;;;4.10;;
71253;SDS011;59019;47.638;18.966;2022-07-29T05:32:03;6.03;;;3.95;;
71253;SDS011;59019;47.638;18.966;2022-07-29T05:34:29;6.60;;;4.32;;
71253;SDS011;59019;47.638;18.966;2022-07-29T05:36:55;6.32;;;4.20;;
71253;SDS011;59019;47.638;18.966;2022-07-29T05:39:21;6.28;;;4.10;;
71253;SDS011;59019;47.638;18.966;2022-07-29T05:41:47;6.43;;;3.72;;
71253;SDS011;59019;47.638;18.966;2022-07-29T05:44:13;8.47;;;4.17;;
71253;SDS011;59019;47.638;18.966;2022-07-29T05:46:38;6.70;;;4.38;;
71253;SDS011;59019;47.638;18.966;2022-07-29T05:49:04;6.77;;;3.80;;
71253;SDS011;59019;47.638;18.966;2022-07-29T05:51:31;6.95;;;3.80;;
71253;SDS011;59019;47.638;18.966;2022-07-29T05:53:58;8.70;;;3.97;;
71253;SDS011;59019;47.638;18.966;2022-07-29T05:56:24;7.17;;;4.20;;
71253;SDS011;59019;47.638;18.966;2022-07-29T05:58:50;6.10;;;4.10;;
71253;SDS011;59019;47.638;18.966;2022-07-29T06:01:15;7.43;;;4.03;;
71253;SDS011;59019;47.638;18.966;2022-07-29T06:03:41;6.90;;;4.33;;
71253;SDS011;59019;47.638;18.966;2022-07-29T06:06:07;5.93;;;4.33;;
71253;SDS011;59019;47.638;18.966;2022-07-29T06:08:33;5.68;;;4.07;;
71253;SDS011;59019;47.638;18.966;2022-07-29T06:10:59;7.07;;;4.30;;
71253;SDS011;59019;47.638;18.966;2022-07-29T06:13:25;7.72;;;4.18;;
71253;SDS011;59019;47.638;18.966;2022-07-29T06:15:51;6.97;;;4.53;;
71253;SDS011;59019;47.638;18.966;2022-07-29T06:18:16;6.20;;;4.50;;
71253;SDS011;59019;47.638;18.966;2022-07-29T06:20:42;7.20;;;4.00;;
71253;SDS011;59019;47.638;18.966;2022-07-29T06:23:08;5.60;;;4.00;;
71253;SDS011;59019;47.638;18.966;2022-07-29T06:25:35;7.40;;;4.40;;
71253;SDS011;59019;47.638;18.966;2022-07-29T06:28:01;6.45;;;4.28;;
71253;SDS011;59019;47.638;18.966;2022-07-29T06:30:27;5.75;;;4.25;;
71253;SDS011;59019;47.638;18.966;2022-07-29T06:32:54;6.50;;;4.35;;
71253;SDS011;59019;47.638;18.966;2022-07-29T06:35:21;6.18;;;4.18;;
71253;SDS011;59019;47.638;18.966;2022-07-29T06:37:47;6.40;;;4.28;;
71253;SDS011;59019;47.638;18.966;2022-07-29T06:40:13;6.70;;;4.43;;
71253;SDS011;59019;47.638;18.966;2022-07-29T06:42:57;5.95;;;3.75;;
71253;SDS011;59019;47.638;18.966;2022-07-29T06:45:23;7.18;;;4.07;;
71253;SDS011;59019;47.638;18.966;2022-07-29T06:47:49;7.43;;;4.20;;
71253;SDS011;59019;47.638;18.966;2022-07-29T06:50:15;6.07;;;3.95;;
71253;SDS011;59019;47.638;18.966;2022-07-29T06:52:41;7.30;;;4.28;;
71253;SDS011;59019;47.638;18.966;2022-07-29T06:55:07;6.33;;;4.03;;
71253;SDS011;59019;47.638;18.966;2022-07-29T06:57:33;9.20;;;4.28;;
71253;SDS011;59019;47.638;18.966;2022-07-29T06:59:59;7.63;;;4.22;;
71253;SDS011;59019;47.638;18.966;2022-07-29T07:02:25;7.37;;;4.10;;
71253;SDS011;59019;47.638;18.966;2022-07-29T07:04:50;8.02;;;3.97;;
71253;SDS011;59019;47.638;18.966;2022-07-29T07:07:16;7.32;;;4.22;;
71253;SDS011;59019;47.638;18.966;2022-07-29T07:09:42;6.27;;;3.73;;
71253;SDS011;59019;47.638;18.966;2022-07-29T07:12:08;8.38;;;4.30;;
71253;SDS011;59019;47.638;18.966;2022-07-29T07:14:34;7.73;;;4.33;;
71253;SDS011;59019;47.638;18.966;2022-07-29T07:16:59;7.40;;;4.03;;
71253;SDS011;59019;47.638;18.966;2022-07-29T07:19:29;6.82;;;4.03;;
71253;SDS011;59019;47.638;18.966;2022-07-29T07:21:55;6.53;;;4.40;;
71253;SDS011;59019;47.638;18.966;2022-07-29T07:24:20;6.83;;;4.10;;
71253;SDS011;59019;47.638;18.966;2022-07-29T07:26:46;6.72;;;4.00;;
71253;SDS011;59019;47.638;18.966;2022-07-29T07:29:12;6.17;;;4.60;;
71253;SDS011;59019;47.638;18.966;2022-07-29T07:31:38;7.82;;;4.40;;
71253;SDS011;59019;47.638;18.966;2022-07-29T07:34:03;9.33;;;4.87;;
71253;SDS011;59019;47.638;18.966;2022-07-29T07:36:29;6.57;;;4.40;;
71253;SDS011;59019;47.638;18.966;2022-07-29T07:38:55;7.40;;;4.30;;
71253;SDS011;59019;47.638;18.966;2022-07-29T07:41:21;6.60;;;4.47;;
71253;SDS011;59019;47.638;18.966;2022-07-29T07:43:52;6.78;;;4.20;;
71253;SDS011;59019;47.638;18.966;2022-07-29T07:46:17;7.18;;;4.47;;
71253;SDS011;59019;47.638;18.966;2022-07-29T07:48:43;7.60;;;4.30;;
71253;SDS011;59019;47.638;18.966;2022-07-29T07:51:09;7.27;;;4.20;;
71253;SDS011;59019;47.638;18.966;2022-07-29T07:53:35;6.22;;;4.13;;
71253;SDS011;59019;47.638;18.966;2022-07-29T07:56:00;6.13;;;4.20;;
71253;SDS011;59019;47.638;18.966;2022-07-29T07:58:26;7.03;;;4.50;;
71253;SDS011;59019;47.638;18.966;2022-07-29T08:00:52;6.40;;;3.90;;
71253;SDS011;59019;47.638;18.966;2022-07-29T08:03:17;10.02;;;4.40;;
71253;SDS011;59019;47.638;18.966;2022-07-29T08:05:43;5.75;;;4.28;;
71253;SDS011;59019;47.638;18.966;2022-07-29T08:08:09;7.63;;;4.28;;
71253;SDS011;59019;47.638;18.966;2022-07-29T08:10:34;9.32;;;4.25;;
71253;SDS011;59019;47.638;18.966;2022-07-29T08:13:19;6.93;;;4.00;;
71253;SDS011;59019;47.638;18.966;2022-07-29T08:15:46;6.23;;;4.27;;
71253;SDS011;59019;47.638;18.966;2022-07-29T08:18:12;9.45;;;4.28;;
71253;SDS011;59019;47.638;18.966;2022-07-29T08:20:38;6.63;;;4.15;;
71253;SDS011;59019;47.638;18.966;2022-07-29T08:23:05;6.28;;;4.40;;
71253;SDS011;59019;47.638;18.966;2022-07-29T08:25:34;8.50;;;4.27;;
71253;SDS011;59019;47.638;18.966;2022-07-29T08:28:00;7.55;;;3.90;;
71253;SDS011;59019;47.638;18.966;2022-07-29T08:30:26;8.40;;;4.63;;
71253;SDS011;59019;47.638;18.966;2022-07-29T08:32:52;7.27;;;4.40;;
71253;SDS011;59019;47.638;18.966;2022-07-29T08:35:21;6.60;;;4.20;;
71253;SDS011;59019;47.638;18.966;2022-07-29T08:37:48;6.07;;;3.90;;
71253;SDS011;59019;47.638;18.966;2022-07-29T08:40:13;6.80;;;4.20;;
71253;SDS011;59019;47.638;18.966;2022-07-29T08:42:39;7.85;;;4.22;;
71253;SDS011;59019;47.638;18.966;2022-07-29T08:45:05;6.40;;;4.13;;
71253;SDS011;59019;47.638;18.966;2022-07-29T08:47:31;9.57;;;4.40;;
71253;SDS011;59019;47.638;18.966;2022-07-29T08:49:58;7.57;;;4.40;;
71253;SDS011;59019;47.638;18.966;2022-07-29T08:52:25;8.23;;;4.28;;
71253;SDS011;59019;47.638;18.966;2022-07-29T08:54:51;7.38;;;4.70;;
71253;SDS011;59019;47.638;18.966;2022-07-29T08:57:18;6.25;;;4.20;;
71253;SDS011;59019;47.638;18.966;2022-07-29T08:59:44;8.20;;;4.47;;
71253;SDS011;59019;47.638;18.966;2022-07-29T09:02:15;7.53;;;4.55;;
71253;SDS011;59019;47.638;18.966;2022-07-29T09:04:47;7.00;;;4.68;;
71253;SDS011;59019;47.638;18.966;2022-07-29T09:07:15;8.07;;;4.88;;
71253;SDS011;59019;47.638;18.966;2022-07-29T09:09:42;7.30;;;4.45;;
71253;SDS011;59019;47.638;18.966;2022-07-29T09:12:11;9.75;;;4.90;;
71253;SDS011;59019;47.638;18.966;2022-07-29T09:14:38;9.48;;;4.95;;
71253;SDS011;59019;47.638;18.966;2022-07-29T09:17:04;9.15;;;4.70;;
71253;SDS011;59019;47.638;18.966;2022-07-29T09:19:31;6.50;;;4.63;;
71253;SDS011;59019;47.638;18.966;2022-07-29T09:22:03;6.60;;;4.70;;
71253;SDS011;59019;47.638;18.966;2022-07-29T09:27:10;7.28;;;4.80;;
71253;SDS011;59019;47.638;18.966;2022-07-29T09:29:44;8.38;;;4.63;;
71253;SDS011;59019;47.638;18.966;2022-07-29T09:32:09;8.23;;;4.63;;
71253;SDS011;59019;47.638;18.966;2022-07-29T09:34:35;5.65;;;4.30;;
71253;SDS011;59019;47.638;18.966;2022-07-29T09:37:01;6.95;;;4.55;;
71253;SDS011;59019;47.638;18.966;2022-07-29T09:39:35;6.43;;;4.40;;
71253;SDS011;59019;47.638;18.966;2022-07-29T09:42:09;7.25;;;4.25;;
71253;SDS011;59019;47.638;18.966;2022-07-29T09:47:09;8.23;;;4.33;;
71253;SDS011;59019;47.638;18.966;2022-07-29T09:49:52;6.03;;;4.07;;
71253;SDS011;59019;47.638;18.966;2022-07-29T09:52:28;6.00;;;4.13;;
71253;SDS011;59019;47.638;18.966;2022-07-29T09:55:04;8.45;;;4.20;;
71253;SDS011;59019;47.638;18.966;2022-07-29T09:57:34;5.07;;;3.83;;
71253;SDS011;59019;47.638;18.966;2022-07-29T10:00:03;5.50;;;3.83;;
71253;SDS011;59019;47.638;18.966;2022-07-29T10:02:36;6.53;;;3.85;;
71253;SDS011;59019;47.638;18.966;2022-07-29T10:05:05;5.97;;;3.92;;
71253;SDS011;59019;47.638;18.966;2022-07-29T10:07:44;6.45;;;3.90;;
71253;SDS011;59019;47.638;18.966;2022-07-29T10:10:10;7.15;;;4.10;;
71253;SDS011;59019;47.638;18.966;2022-07-29T10:12:48;7.03;;;3.90;;
71253;SDS011;59019;47.638;18.966;2022-07-29T10:15:15;5.93;;;3.80;;
71253;SDS011;59019;47.638;18.966;2022-07-29T10:17:41;5.85;;;3.50;;
71253;SDS011;59019;47.638;18.966;2022-07-29T10:20:07;5.43;;;3.37;;
71253;SDS011;59019;47.638;18.966;2022-07-29T10:22:33;5.97;;;3.30;;
71253;SDS011;59019;47.638;18.966;2022-07-29T10:24:59;6.60;;;3.55;;
71253;SDS011;59019;47.638;18.966;2022-07-29T10:27:25;6.13;;;3.63;;
71253;SDS011;59019;47.638;18.966;2022-07-29T10:29:50;7.60;;;3.38;;
71253;SDS011;59019;47.638;18.966;2022-07-29T10:32:19;8.87;;;3.50;;
71253;SDS011;59019;47.638;18.966;2022-07-29T10:35:14;6.32;;;3.20;;
71253;SDS011;59019;47.638;18.966;2022-07-29T10:44:23;7.53;;;3.30;;
71253;SDS011;59019;47.638;18.966;2022-07-29T10:46:50;5.13;;;3.47;;
71253;SDS011;59019;47.638;18.966;2022-07-29T10:54:36;6.93;;;3.60;;
71253;SDS011;59019;47.638;18.966;2022-07-29T10:59:46;5.18;;;3.50;;
71253;SDS011;59019;47.638;18.966;2022-07-29T11:05:04;6.95;;;3.70;;
71253;SDS011;59019;47.638;18.966;2022-07-29T11:07:32;6.25;;;3.67;;
71253;SDS011;59019;47.638;18.966;2022-07-29T11:34:17;6.22;;;3.60;;
71253;SDS011;59019;47.638;18.966;2022-07-29T11:39:30;5.95;;;3.80;;
71253;SDS011;59019;47.638;18.966;2022-07-29T11:47:30;5.30;;;3.70;;
71253;SDS011;59019;47.638;18.966;2022-07-29T11:49:56;6.65;;;3.75;;
71253;SDS011;59019;47.638;18.966;2022-07-29T11:52:23;7.72;;;3.60;;
71253;SDS011;59019;47.638;18.966;2022-07-29T11:54:49;5.18;;;3.50;;
71253;SDS011;59019;47.638;18.966;2022-07-29T11:57:16;7.23;;;3.13;;
71253;SDS011;59019;47.638;18.966;2022-07-29T11:59:44;8.02;;;3.70;;
71253;SDS011;59019;47.638;18.966;2022-07-29T12:02:12;5.95;;;3.40;;
71253;SDS011;59019;47.638;18.966;2022-07-29T12:05:12;5.75;;;3.65;;
71253;SDS011;59019;47.638;18.966;2022-07-29T12:07:31;6.65;;;3.40;;
71253;SDS011;59019;47.638;18.966;2022-07-29T12:09:58;6.33;;;3.67;;
71253;SDS011;59019;47.638;18.966;2022-07-29T12:12:24;5.10;;;3.20;;
71253;SDS011;59019;47.638;18.966;2022-07-29T12:14:50;5.78;;;3.40;;
71253;SDS011;59019;47.638;18.966;2022-07-29T12:17:29;5.43;;;2.97;;
71253;SDS011;59019;47.638;18.966;2022-07-29T12:20:00;5.53;;;3.20;;
71253;SDS011;59019;47.638;18.966;2022-07-29T12:22:35;4.97;;;3.08;;
71253;SDS011;59019;47.638;18.966;2022-07-29T12:25:03;5.40;;;3.50;;
71253;SDS011;59019;47.638;18.966;2022-07-29T12:27:30;5.45;;;3.17;;
71253;SDS011;59019;47.638;18.966;2022-07-29T12:29:58;6.38;;;3.22;;
71253;SDS011;59019;47.638;18.966;2022-07-29T12:32:35;4.70;;;3.25;;
71253;SDS011;59019;47.638;18.966;2022-07-29T12:35:05;6.78;;;3.60;;
71253;SDS011;59019;47.638;18.966;2022-07-29T12:37:36;5.10;;;3.20;;
71253;SDS011;59019;47.638;18.966;2022-07-29T12:40:04;4.63;;;2.78;;
71253;SDS011;59019;47.638;18.966;2022-07-29T12:42:30;7.05;;;3.20;;
71253;SDS011;59019;47.638;18.966;2022-07-29T12:44:56;5.90;;;3.53;;
71253;SDS011;59019;47.638;18.966;2022-07-29T12:47:22;5.35;;;3.22;;
71253;SDS011;59019;47.638;18.966;2022-07-29T12:49:48;4.70;;;3.50;;
71253;SDS011;59019;47.638;18.966;2022-07-29T12:52:31;4.93;;;3.20;;
71253;SDS011;59019;47.638;18.966;2022-07-29T12:54:58;4.97;;;3.30;;
71253;SDS011;59019;47.638;18.966;2022-07-29T12:57:24;5.25;;;3.38;;
71253;SDS011;59019;47.638;18.966;2022-07-29T13:00:07;5.30;;;3.53;;
71253;SDS011;59019;47.638;18.966;2022-07-29T13:02:36;4.53;;;3.30;;
71253;SDS011;59019;47.638;18.966;2022-07-29T13:05:02;5.78;;;3.50;;
71253;SDS011;59019;47.638;18.966;2022-07-29T13:07:30;7.05;;;3.63;;
71253;SDS011;59019;47.638;18.966;2022-07-29T13:10:16;6.75;;;3.25;;
71253;SDS011;59019;47.638;18.966;2022-07-29T13:15:34;7.10;;;3.63;;
71253;SDS011;59019;47.638;18.966;2022-07-29T13:18:00;5.20;;;3.47;;
71253;SDS011;59019;47.638;18.966;2022-07-29T13:20:27;7.95;;;3.67;;
71253;SDS011;59019;47.638;18.966;2022-07-29T13:22:57;6.00;;;3.45;;
71253;SDS011;59019;47.638;18.966;2022-07-29T13:25:30;6.97;;;3.43;;
71253;SDS011;59019;47.638;18.966;2022-07-29T13:27:57;7.60;;;3.47;;
71253;SDS011;59019;47.638;18.966;2022-07-29T13:30:24;5.43;;;3.40;;
71253;SDS011;59019;47.638;18.966;2022-07-29T13:32:50;5.03;;;3.50;;
71253;SDS011;59019;47.638;18.966;2022-07-29T13:35:17;5.70;;;3.33;;
71253;SDS011;59019;47.638;18.966;2022-07-29T13:37:44;6.73;;;3.43;;
71253;SDS011;59019;47.638;18.966;2022-07-29T13:40:10;7.22;;;3.03;;
71253;SDS011;59019;47.638;18.966;2022-07-29T13:42:36;6.80;;;3.50;;
71253;SDS011;59019;47.638;18.966;2022-07-29T13:45:02;4.93;;;3.30;;
71253;SDS011;59019;47.638;18.966;2022-07-29T13:47:29;7.60;;;3.40;;
71253;SDS011;59019;47.638;18.966;2022-07-29T13:49:55;5.63;;;3.20;;
71253;SDS011;59019;47.638;18.966;2022-07-29T13:52:20;6.20;;;3.60;;
71253;SDS011;59019;47.638;18.966;2022-07-29T13:54:46;5.03;;;3.17;;
71253;SDS011;59019;47.638;18.966;2022-07-29T13:57:12;5.23;;;2.93;;
71253;SDS011;59019;47.638;18.966;2022-07-29T13:59:39;5.43;;;3.47;;
71253;SDS011;59019;47.638;18.966;2022-07-29T14:02:06;5.40;;;3.20;;
71253;SDS011;59019;47.638;18.966;2022-07-29T14:04:31;5.27;;;3.20;;
71253;SDS011;59019;47.638;18.966;2022-07-29T14:06:58;6.28;;;3.80;;
71253;SDS011;59019;47.638;18.966;2022-07-29T14:09:23;6.72;;;3.40;;
71253;SDS011;59019;47.638;18.966;2022-07-29T14:11:49;7.78;;;3.60;;
71253;SDS011;59019;47.638;18.966;2022-07-29T14:14:16;5.22;;;3.33;;
71253;SDS011;59019;47.638;18.966;2022-07-29T14:16:43;4.43;;;3.08;;
71253;SDS011;59019;47.638;18.966;2022-07-29T14:19:10;7.13;;;3.60;;
71253;SDS011;59019;47.638;18.966;2022-07-29T14:21:36;5.50;;;3.47;;
71253;SDS011;59019;47.638;18.966;2022-07-29T14:24:03;4.72;;;3.47;;
71253;SDS011;59019;47.638;18.966;2022-07-29T14:26:29;5.75;;;3.42;;
71253;SDS011;59019;47.638;18.966;2022-07-29T14:28:54;5.93;;;3.47;;
71253;SDS011;59019;47.638;18.966;2022-07-29T14:31:20;5.67;;;3.60;;
71253;SDS011;59019;47.638;18.966;2022-07-29T14:33:45;4.47;;;3.17;;
71253;SDS011;59019;47.638;18.966;2022-07-29T14:36:11;5.13;;;3.33;;
71253;SDS011;59019;47.638;18.966;2022-07-29T14:38:37;6.85;;;3.13;;
71253;SDS011;59019;47.638;18.966;2022-07-29T14:41:03;5.95;;;3.72;;
71253;SDS011;59019;47.638;18.966;2022-07-29T14:43:29;5.43;;;3.30;;
71253;SDS011;59019;47.638;18.966;2022-07-29T14:45:55;5.70;;;3.60;;
71253;SDS011;59019;47.638;18.966;2022-07-29T14:48:20;6.78;;;3.97;;
71253;SDS011;59019;47.638;18.966;2022-07-29T14:50:46;5.70;;;3.50;;
71253;SDS011;59019;47.638;18.966;2022-07-29T14:53:11;5.90;;;3.85;;
71253;SDS011;59019;47.638;18.966;2022-07-29T14:55:38;5.73;;;3.20;;
71253;SDS011;59019;47.638;18.966;2022-07-29T14:58:04;6.03;;;3.45;;
71253;SDS011;59019;47.638;18.966;2022-07-29T15:00:30;5.82;;;3.45;;
71253;SDS011;59019;47.638;18.966;2022-07-29T15:02:57;5.70;;;3.58;;
71253;SDS011;59019;47.638;18.966;2022-07-29T15:05:24;5.03;;;3.37;;
71253;SDS011;59019;47.638;18.966;2022-07-29T15:07:50;6.68;;;3.60;;
71253;SDS011;59019;47.638;18.966;2022-07-29T15:10:15;7.53;;;3.50;;
71253;SDS011;59019;47.638;18.966;2022-07-29T15:12:41;5.38;;;3.25;;
71253;SDS011;59019;47.638;18.966;2022-07-29T15:15:06;6.27;;;3.60;;
71253;SDS011;59019;47.638;18.966;2022-07-29T15:17:32;6.55;;;3.63;;
71253;SDS011;59019;47.638;18.966;2022-07-29T15:19:58;6.23;;;3.70;;
71253;SDS011;59019;47.638;18.966;2022-07-29T15:22:24;6.05;;;3.53;;
71253;SDS011;59019;47.638;18.966;2022-07-29T15:24:50;5.37;;;3.70;;
71253;SDS011;59019;47.638;18.966;2022-07-29T15:27:15;6.45;;;3.88;;
71253;SDS011;59019;47.638;18.966;2022-07-29T15:29:41;6.10;;;3.45;;
71253;SDS011;59019;47.638;18.966;2022-07-29T15:32:07;6.35;;;3.80;;
71253;SDS011;59019;47.638;18.966;2022-07-29T15:34:33;5.37;;;3.23;;
71253;SDS011;59019;47.638;18.966;2022-07-29T15:37:00;7.82;;;3.53;;
71253;SDS011;59019;47.638;18.966;2022-07-29T15:39:25;8.90;;;3.90;;
71253;SDS011;59019;47.638;18.966;2022-07-29T15:41:51;6.32;;;3.60;;
71253;SDS011;59019;47.638;18.966;2022-07-29T15:44:17;7.50;;;3.33;;
71253;SDS011;59019;47.638;18.966;2022-07-29T15:46:43;6.05;;;3.50;;
71253;SDS011;59019;47.638;18.966;2022-07-29T15:49:27;8.07;;;3.50;;
71253;SDS011;59019;47.638;18.966;2022-07-29T15:51:57;5.28;;;3.60;;